Electron Alley

Oops — I Never Saw It Do That Before . . . .

Posts Tagged ‘Weather Underground

Erie Effects: March, 2011 Wx Log

leave a comment »

March 1

8:53 AM 27.0 °F 23.0 °F 85% 30.34 in 6.0 miles South 9.2 mph – N/A Partly Cloudy

METAR KLPR 011353Z AUTO 17008KT 6SM BR FEW085 M03/M05 A3031 RMK AO2 SLP273 T10281050

Sunrise: 7:04am; Sunset: 6:18pm; Moonrise: 5:13am; Moonset: 3:32pm; Day length: 11h 13m

March 2

8:53 AM 36.0 °F 28.0 °F 73% 30.27 in 8.0 miles NW 15.0 mph 20.7 mph N/A Clear

METAR KLPR 021353Z AUTO 32013G18KT 8SM CLR 02/M02 A3024 RMK AO2 SLP248 T00221022

Sunrise: 7:03am; Sunset: 6:19pm; Moonrise: 5:42am; Moonset: 4:33pm; Day length: 11h 16m

March 3

8:53 AM 21.9 °F 8.1 °F 55% 30.65 in 10.0 miles SE 18.4 mph 24.2 mph N/A Clear

METAR KLPR 031353Z AUTO 14016G21KT 10SM CLR M06/M13 A3061 RMK AO2 SLP377 T10561133 TSNO

Sunrise: 7:01am; Sunset: 6:20pm; Moonrise: 6:07am; Moonset: 5:33pm; Day length: 11h 19m

March 4

8:53 AM 43.0 °F 26.1 °F 51% 30.23 in 10.0 miles South 13.8 mph – N/A Mostly Cloudy

METAR KLPR 041353Z AUTO 18012KT 10SM BKN065 BKN100 06/M03 A3021 RMK AO2 SLP235 T00611033

Sunrise: 6:59am; Sunset: 6:21pm; Moonrise: 6:31am; Moonset: 6:32pm; New Moon: 3:47pm; Day length: 11h 22m

March 5

8:53 AM 46.9 °F 43.0 °F 86% 29.94 in 8.0 miles South 23.0 mph 29.9 mph 0.06 in Rain Light Rain

METAR KLPR 051353Z AUTO 18020G26KT 8SM -RA BKN033 BKN044 OVC065 08/06 A2993 RMK AO2 PK WND 20028/1309 SLP137 P0006 T00830061

Sunrise: 6:58am; Sunset: 6:22pm; Moonrise: 6:54am; Moonset: 7:31pm; Day length: 11h 24m

March 6

8:53 AM 28.0 °F 25.0 °F 88% 30.18 in 10.0 miles NNE 19.6 mph 25.3 mph 0.00 in Overcast

METAR KLPR 061353Z AUTO 02017G22KT 10SM OVC008 M02/M04 A3015 RMK AO2 SNE12 SLP220 P0000 T10221039

Sunrise: 6:56am; Sunset: 6:23pm; Moonrise: 7:17am; Moonset: 8:30pm; Day length: 11h 27m

March 7

8:53 AM 25.0 °F 19.9 °F 81% 30.30 in 10.0 miles North 5.8 mph – N/A Overcast

METAR KLPR 071353Z AUTO 35005KT 10SM OVC010 M04/M07 A3027 RMK AO2 SLP261 T10391067

Sunrise: 6:55am; Sunset: 6:25pm; Moonrise: 7:41am; Moonset: 9:29pm; Day length: 11h 30m

March 8

8:53 AM 33.1 °F 24.1 °F 70% 30.40 in 10.0 miles SE 5.8 mph – N/A Clear

METAR KLPR 081353Z AUTO 13005KT 10SM CLR 01/M04 A3037 RMK AO2 SLP294 T00061044

Sunrise: 6:53am; Sunset: 6:26pm; Moonrise: 8:08am; Moonset: 10:29pm; Day length: 11h 33m

March 9

8:53 AM 41.0 °F 37.9 °F 89% 30.04 in 5.0 miles SSE 23.0 mph 33.4 mph 0.02 in Rain Light Rain

METAR KLPR 091353Z AUTO 16020G29KT 5SM -RA BR OVC014 05/03 A3002 RMK AO2 PK WND 17029/1351 SLP172 P0002 T00500033

Sunrise: 6:51am; Sunset: 6:27pm; Moonrise: 8:38am; Moonset: 11:30pm; Day length: 11h 35m

March 10

8:45 AM 44.6 °F 42.8 °F 93% 29.83 in 2.5 miles WNW 9.2 mph – 0.01 in Rain Light Rain

SPECI KLPR 101345Z AUTO 29008KT 2 1/2SM -RA BR SCT006 OVC024 07/06 A2983 RMK AO2 RAB27 P0001

Sunrise: 6:50am; Sunset: 6:28pm; Moonrise: 9:13am; Moonset: none; Day length: 11h 38m

March 11

8:36 AM 30.2 °F 28.4 °F 93% 29.84 in 0.5 miles WNW 13.8 mph – 0.01 in Fog , Snow Snow

SPECI KLPR 111336Z AUTO 29012KT 1/2SM SN FZFG SCT006 OVC012 M01/M02 A2984 RMK AO2 P0001

Sunrise: 6:48am; Sunset: 6:29pm; Moonrise: 9:55am; Moonset: 12:29am; Day length: 11h 41m

March 12

7:53 AM 37.0 °F 28.9 °F 73% 29.76 in 10.0 miles SSW 15.0 mph – N/A Overcast

METAR KLPR 121253Z AUTO 20013KT 10SM OVC095 03/M02 A2974 RMK AO2 SLP077 T00281017

Sunrise: 6:46am; Sunset: 6:30pm; Moonrise: 10:44am; Moonset: 1:27am; First Qtr: 6:46pm; Day length: 11h 44m

March 13

8:53 AM 34.0 °F 28.0 °F 79% 30.18 in 10.0 miles WNW 13.8 mph – N/A Overcast

METAR KLPR 131253Z AUTO 30012KT 10SM OVC028 01/M02 A3016 RMK AO2 SLP220 T00111022

Sunrise: 7:45am; Sunset: 7:31pm; Moonrise: 12:42pm; Moonset: 3:20am; Day length: 11h 47m

March 14

8:53 AM 30.9 °F 25.0 °F 79% 30.46 in 10.0 miles ENE 9.2 mph – N/A Overcast

METAR KLPR 141253Z AUTO 06008KT 10SM BKN019 OVC036 M01/M04 A3043 RMK AO2 SLP313 T10061039

Sunrise: 7:43am; Sunset: 7:33pm; Moonrise: 1:47pm; Moonset: 4:08am; Day length: 11h 49m

March 15

8:53 AM 32.0 °F 26.1 °F 79% 30.24 in 10.0 miles Calm Calm – N/A Clear

METAR KLPR 151253Z AUTO 00000KT 10SM CLR 00/M03 A3021 RMK AO2 SLP239 T00001033

Sunrise: 7:41am; Sunset: 7:34pm; Moonrise: 2:58pm; Moonset: 4:51am; Day length: 11h 52m

March 16

8:12 AM 39.2 °F 39.2 °F 100% 30.08 in 2.5 miles West 10.4 mph – N/A Overcast

SPECI KLPR 161212Z AUTO 27009KT 2 1/2SM BR BKN008 OVC012 04/04 A3008 RMK AO2 CIG 005V009

Sunrise: 7:40am; Sunset: 7:35pm; Moonrise: 4:12pm; Moonset: 5:28am; Day length: 11h 55m

March 17

8:53 AM 43.0 °F 37.0 °F 80% 30.18 in 8.0 miles SSW 11.5 mph – N/A Clear

METAR KLPR 171253Z AUTO 20010KT 8SM CLR 06/03 A3017 RMK AO2 SLP219 T00610028

Sunrise: 7:38am; Sunset: 7:36pm; Moonrise: 5:28pm; Moonset: 6:02am; Day length: 11h 58m

March 18

8:53 AM 52.0 °F 43.0 °F 71% 30.05 in 10.0 miles NW 9.2 mph – N/A Clear

METAR KLPR 181253Z AUTO 32008KT 10SM CLR 11/06 A3004 RMK AO2 SLP174 T01110061

Sunrise: 7:36am; Sunset: 7:37pm; Moonrise: 6:45pm; Moonset: 6:33am; Day length: 12h 1m

March 19

8:51 AM 33.8 °F 28.4 °F 81% 30.43 in 10.0 miles North 6.9 mph – N/A Mostly Cloudy

SPECI KLPR 191251Z AUTO 35006KT 10SM BKN014 01/M02 A3043 RMK AO2

Sunrise: 7:35am; Sunset: 7:38pm; Moonrise: 8:03pm; Moonset: 7:04am; Full Moon: 1:11pm; Day length: 12h 3m

March 20

7:53 AM 30.9 °F 24.1 °F 76% 30.54 in 10.0 miles SE 8.1 mph – N/A Clear

METAR KLPR 201153Z AUTO 14007KT 10SM CLR M01/M04 A3051 RMK AO2 SLP342 T10061044 11006 21017 58003

Sunrise: 7:33am; Sunset: 7:39pm; Moonrise: 9:21pm; Moonset: 7:36am; Day length: 12h 6m

March 21

8:49 AM 59.0 °F 51.8 °F 77% 29.97 in 10.0 miles WNW 15.0 mph 20.7 mph N/A Mostly Cloudy

SPECI KLPR 211249Z AUTO 29013G18KT 10SM BKN029 15/11 A2997 RMK AO2

Sunrise: 7:31am; Sunset: 7:40pm; Moonrise: 10:38pm; Moonset: 8:10am; Day length: 12h 9m

March 22

8:53 AM 39.0 °F 36.0 °F 89% 30.10 in 10.0 miles ENE 9.2 mph – N/A Scattered Clouds

METAR KLPR 221253Z AUTO 07008KT 10SM SCT031 04/02 A3009 RMK AO2 SLP193 T00390022

Sunrise: 7:30am; Sunset: 7:41pm; Moonrise: 11:53pm; Moonset: 8:48am; Day length: 12h 12m

March 23

8:53 AM 39.9 °F 39.0 °F 97% 29.59 in 4.0 miles East 8.1 mph – N/A Overcast

METAR KLPR 231253Z AUTO 08007KT 4SM BR OVC007 04/04 A2957 RMK AO2 SLP019 T00440039

Sunrise: 7:28am; Sunset: 7:43pm; Moonrise: none; Moonset: 9:32am; Day length: 12h 15m

March 24

8:34 AM 30.2 °F 21.2 °F 69% 29.89 in 10.0 miles NNE 15.0 mph – N/A Overcast

SPECI KLPR 241234Z AUTO 02013KT 10SM SCT023 OVC030 M01/M06 A2989 RMK AO2

Sunrise: 7:26am; Sunset: 7:44pm; Moonrise: 1:02am; Moonset: 10:23am; Day length: 12h 17m

March 25

8:53 AM 25.0 °F 19.0 °F 78% 30.14 in 10.0 miles SSW 3.5 mph – N/A Clear

METAR KLPR 251253Z AUTO 21003KT 10SM CLR M04/M07 A3011 RMK AO2 SLP205 T10391072

Sunrise: 7:25am; Sunset: 7:45pm; Moonrise: 2:04am; Moonset: 11:19am; Day length: 12h 20m

March 26

8:29 AM 24.8 °F 12.2 °F 59% 30.17 in 10.0 miles NE 12.7 mph – N/A Scattered Clouds

SPECI KLPR 261229Z AUTO 05011KT 10SM SCT025 M04/M11 A3017 RMK AO2

Sunrise: 7:23am; Sunset: 7:46pm; Moonrise: 2:56am; Moonset: 12:20pm; Last Qtr: 7:08am; Day length: 12h 23m\

March 27

8:53 AM 25.0 °F 15.1 °F 66% 30.19 in 10.0 miles NNE 11.5 mph – N/A Overcast

METAR KLPR 271253Z AUTO 03010KT 10SM OVC027 M04/M09 A3016 RMK AO2 SLP224 T10391094

Sunrise: 7:21am; Sunset: 7:47pm; Moonrise: 3:39am; Moonset: 1:23pm; Day length: 12h 26m

March 28

8:53 AM 25.0 °F 19.0 °F 78% 30.27 in 10.0 miles Calm Calm – N/A Clear

METAR KLPR 281253Z AUTO 00000KT 10SM CLR M04/M07 A3024 RMK AO2 SLP251 T10391072

Sunrise: 7:19am; Sunset: 7:48pm; Moonrise: 4:15am; Moonset: 2:26pm; Day length: 12h 29m

March 29

8:53 AM 26.1 °F 19.9 °F 78% 30.33 in 10.0 miles WSW 3.5 mph – N/A Clear

METAR KLPR 291253Z AUTO 24003KT 10SM CLR M03/M07 A3030 RMK AO2 SLP271 T10331067

Sunrise: 7:18am; Sunset: 7:49pm; Moonrise: 4:45am; Moonset: 3:27pm; Day length: 12h 31m

March 30

8:53 AM 30.9 °F 21.0 °F 67% 30.14 in 10.0 miles East 9.2 mph – N/A Clear

METAR KLPR 301253Z AUTO 08008KT 10SM CLR M01/M06 A3011 RMK AO2 SLP206 T10061061

Sunrise: 7:16a; Sunset: 7:50pm; Moonrise: 5:11am; Moonset: 4:27pm; Day length: 12h 34m

March 31

8:17 AM 32.0 °F 30.2 °F 93% 29.86 in 8.0 miles NNW 6.9 mph – N/A Overcast

SPECI KLPR 311217Z AUTO 34006KT 8SM OVC009 00/M01 A2986 RMK AO2 CIG 008V013

Sunrise: 7:14am; Sunset: 7:51pm; Moonrise: 5:36am; Moonset: 5:26pm; Day length: 12h 37m

Weather Data from This Great Site

Advertisements

Erie Effects: February, 2011 Wx Log

leave a comment »

February 1

8:53 AM 19.9 °F 17.1 °F 89% 30.18 in 10.0 miles ENE 15.0 mph – N/A Overcast

METAR KLPR 011353Z AUTO 06013KT 10SM OVC007 M07/M08 A3014 RMK AO2 SLP219 T10671083

Sunrise: 7:41am; Sunset: 5:43pm; Moonrise: 6:39am; Moonset: 4:37pm; Day length: 10h 2m

February 2

8:16 AM 30.2 °F 28.4 °F 93% 29.65 in 8.0 miles West 33.4 mph 48.3 mph 0.00 in Snow Light Snow

SPECI KLPR 021316Z AUTO 26029G42KT 8SM -SN BKN017 OVC021 M01/M02 A2965 RMK AO2 PK WND 25042/1312 UPB1259E01FZRAB01E10SNE1259B10 PRESRR P0000

Sunrise: 7:40am; Sunset: 5:44pm; Moonrise: 7:11am; Moonset: 5:40pm; New Moon: 9:32pm; Day length: 10h 4m

February 3

8:53 AM 7.0 °F 5.0 °F 92% 30.51 in 10.0 miles SW 6.9 mph – N/A Clear

METAR KLPR 031353Z AUTO 22006KT 10SM CLR M14/M15 A3046 RMK AO2 SLP329 T11391150

Sunrise: 7:39am; Sunset: 5:45pm; Moonrise: 7:38am; Moonset: 6:41pm; Day length: 10h 7m

February 4

8:53 AM 17.1 °F 6.1 °F 62% 30.28 in 10.0 miles SW 15.0 mph – N/A Clear

METAR KLPR 041353Z AUTO 23013KT 10SM CLR M08/M14 A3023 RMK AO2 SLP252 T10831144

Sunrise: 7:38am; Sunset: 5:47pm; Moonrise: 8:03am; Moonset: 7:41pm; Day length: 10h 9m

February 5

8:53 AM 21.9 °F 16.0 °F 78% 29.73 in 7.0 miles South 4.6 mph – N/A Overcast

METAR KLPR 051353Z AUTO 17004KT 7SM OVC095 M06/M09 A2970 RMK AO2 SLP068 T10561089

Sunrise: 7:37am; Sunset: 5:48pm; Moonrise: 8:26am; Moonset: 8:40pm; Day length: 10h 11m

February 6

8:53 AM 28.9 °F 24.1 °F 82% 29.96 in 8.0 miles SW 9.2 mph – N/A Overcast

METAR KLPR 061353Z AUTO 22008KT 8SM OVC020 M02/M04 A2994 RMK AO2 SLP146 T10171044

Sunrise: 7:36am; Sunset: 5:49pm; Moonrise: 8:49am; Moonset: 9:39pm; Day length: 10h 14m

February 7

8:53 AM 33.1 °F 30.0 °F 89% 29.92 in 4.0 miles WNW 6.9 mph – N/A Overcast

METAR KLPR 071353Z AUTO 30006KT 4SM BR OVC006 01/M01 A2989 RMK AO2 SLP131 T00061011

Sunrise: 7:34am; Sunset: 5:51pm; Moonrise: 9:12am; Moonset: 10:38pm; Day length: 10h 16m

February 8

8:53 AM 16.0 °F 8.1 °F 71% 30.12 in 10.0 miles NNW 13.8 mph – N/A Mostly Cloudy

METAR KLPR 081353Z AUTO 33012KT 10SM BKN070 M09/M13 A3009 RMK AO2 SLP200 T10891133

Sunrise: 7:33am; Sunset: 5:52pm; Moonrise: 9:37am; Moonset: 11:38pm; Day length: 10h 18m

February 9

8:53 AM 10.9 °F -5.1 °F 49% 30.26 in 10.0 miles SW 12.7 mph – N/A Clear

METAR KLPR 091353Z AUTO 23011KT 10SM CLR M12/M21 A3020 RMK AO2 SLP245 T11171206

Sunrise: 7:32am; Sunset: 5:53pm; Moonrise: 10:04am; Moonset: none; Day length: 10h 21m

February 10

8:53 AM -0.9 °F -5.1 °F 83% 30.21 in 7.0 miles SW 8.1 mph – N/A Clear

METAR KLPR 101353Z AUTO 23007KT 7SM CLR M18/M21 A3016 RMK AO2 SLP230 T11831206

Sunrise: 7:31am; Sunset: 5:54pm; Moonrise: 10:36am; Moonset: 12:38am; Day length: 10h 23m

February 11

8:53 AM 17.1 °F 7.0 °F 65% 30.12 in 10.0 miles WSW 9.2 mph – N/A Clear

METAR KLPR 111353Z AUTO 24008KT 10SM CLR M08/M14 A3007 RMK AO2 SLP198 T10831139

Sunrise: 7:30am; Sunset: 5:56pm; Moonrise: 11:14am; Moonset: 1:40am; First Qtr: 2:19am; length: 10h 26m

February 12

8:53 AM 30.9 °F 23.0 °F 72% 30.00 in 8.0 miles WNW 21.9 mph 29.9 mph 0.00 in Overcast

METAR KLPR 121353Z AUTO 29019G26KT 8SM BKN028 OVC036 M01/M05 A2997 RMK AO2 PK WND 29026/1353 SNE00 SLP157 P0000 T10061050

Sunrise: 7:28am; Sunset: 5:57pm; Moonrise: 12:00pm; Moonset: 2:40am; Day length: 10h 28m

February 13

8:53 AM 37.0 °F 27.0 °F 67% 29.87 in 10.0 miles SW 18.4 mph 27.6 mph N/A Clear

METAR KLPR 131353Z AUTO 23016G24KT 10SM CLR 03/M03 A2985 RMK AO2 SLP113 T00281028

Sunrise: 7:27am; Sunset: 5:58pm; Moonrise: 12:55pm; Moonset: 3:38am; Day length: 10h 31m

February 14

8:53 PM 33.1 °F 25.0 °F 72% 30.24 in 10.0 miles North 11.5 mph – N/A Overcast

METAR KLPR 150153Z AUTO 01010KT 10SM FEW039 OVC049 01/M04 A3021 RMK AO2 SLP239 T00061039

Sunrise: 7:26am; Sunset: 5:59pm; Moonrise: 1:58pm; Moonset: 4:31am; Day length: 10h 33m

February 15

8:53 AM 23.0 °F 17.1 °F 78% 30.46 in 10.0 miles SE 5.8 mph – N/A Clear

METAR KLPR 151353Z AUTO 14005KT 10SM CLR M05/M08 A3043 RMK AO2 SLP315 T10501083

Sunrise: 7:25am; Sunset: 6:01pm; Moonrise: 3:09pm; Moonset: 5:18am; Day length: 10h 36m

February 16

8:53 AM 36.0 °F 24.1 °F 62% 30.13 in 10.0 miles South 9.2 mph – N/A Overcast

METAR KLPR 161353Z AUTO 19008KT 10SM OVC038 02/M04 A3011 RMK AO2 SLP203 T00221044

Sunrise: 7:23am; Sunset: 6:02pm; Moonrise: 4:24pm; Moonset: 5:59am; Day length: 10h 39m

February 17

8:53 AM 50.0 °F 39.9 °F 68% 30.02 in 10.0 miles SSW 11.5 mph – N/A Overcast

METAR KLPR 171353Z AUTO 20010KT 10SM OVC065 10/04 A3001 RMK AO2 SLP164 T01000044

Sunrise: 7:22am; Sunset: 6:03pm; Moonrise: 5:41pm; Moonset: 6:35am; Day length: 10h 41m

NOTE: First Heron of the season was seen later that day standing on the ice beyond the pier.

February 18

8:53 AM 54.0 °F 43.0 °F 66% 29.91 in 10.0 miles West 20.7 mph 32.2 mph N/A Clear

METAR KLPR 181353Z AUTO 28018G28KT 10SM CLR 12/06 A2991 RMK AO2 PK WND 28028/1351 SLP128 T01220061

Sunrise: 7:20am; Sunset: 6:04pm; Moonrise: 6:58pm; Moonset: 7:08am; Full Moon: 3:37am; Day length: 10h 44m

February 19

8:53 AM 30.9 °F 19.0 °F 61% 30.27 in 9.0 miles NW 18.4 mph 29.9 mph 0.00 in Snow Light Snow

METAR KLPR 191353Z AUTO 31016G26KT 9SM -SN CLR M01/M07 A3025 RMK AO2 PK WND 31026/1353 SNE04B26 SLP249 P0000 T10061072

Sunrise: 7:19am; Sunset: 6:06pm; Moonrise: 8:15pm; Moonset: 7:39am; Day length: 10h 46m

NOTE: First white cap waves of the year.

February 20

8:53 AM 26.1 °F 21.0 °F 81% 30.31 in 10.0 miles SSE 6.9 mph – N/A Clear

METAR KLPR 201353Z AUTO 16006KT 10SM CLR M03/M06 A3028 RMK AO2 SLP263 T10331061 PWINO FZRANO $

Sunrise: 7:18am; Sunset: 6:07pm; Moonrise: 9:32pm; Moonset: 8:09am; Day length: 10h 49m

February 21

8:53 AM 27.0 °F 23.0 °F 85% 29.83 in 10.0 miles ENE 19.6 mph 27.6 mph 0.00 in Overcast

METAR KLPR 211353Z AUTO 06017G24KT 10SM OVC009 M03/M05 A2981 RMK AO2 PK WND 07026/1331 SNB40E43 SLP102 P0000 T10281050

Sunrise: 7:16am; Sunset: 6:08pm; Moonrise: 10:48pm; Moonset: 8:41am; Day length: 10h 52m

February 22

8:15 PM 17.6 °F 15.8 °F 93% 30.27 in 10.0 miles NNE 6.9 mph – N/A Mostly Cloudy

SPECI KLPR 230115Z AUTO 03006KT 10SM BKN019 M08/M09 A3027 RMK AO2

Sunrise: 7:15am; Sunset: 6:09pm; Moonrise: none; Moonset: 9:15am; Day length: 10h 54m

February 23

8:53 AM 19.0 °F 17.1 °F 92% 30.38 in 5.0 miles Calm Calm – N/A Overcast

METAR KLPR 231353Z AUTO 00000KT 5SM BR OVC007 M07/M08 A3034 RMK AO2 SLP288 T10721083

Sunrise: 7:13am; Sunset: 6:10pm; Moonrise: 12:01am; Moonset: 9:54am; Day length: 10h 57m

February 24

8:23 AM 32.0 °F 30.2 °F 93% 30.02 in 2.5 miles SSW 3.5 mph – N/A Overcast

SPECI KLPR 241323Z AUTO 21003KT 2 1/2SM BR OVC016 00/M01 A3002 RMK AO2

Sunrise: 7:12am; Sunset: 6:12pm; Moonrise: 1:11am; Moonset: 10:39am; Last Qtr: 6:28pm; Day length: 11h 0m

February 25

8:46 AM 26.6 °F 26.6 °F 100% 29.70 in 0.2 miles NNE 28.8 mph 41.4 mph N/A Fog Light Freezing Fog

SPECI KLPR 251346Z AUTO 02025G36KT 1/4SM FZFG SCT002 OVC009 M03/M03 A2970 RMK AO2 PK WND 01036/1339 PWINO FZRANO $

Sunrise: 7:10am; Sunset: 6:13pm; Moonrise: 2:16am; Moonset: 11:30am; Day length: 11h 2m

February 26

8:53 AM 23.0 °F 19.0 °F 85% 30.18 in 6.0 miles South 4.6 mph – N/A Overcast

METAR KLPR 261353Z AUTO 19004KT 6SM BR OVC065 M05/M07 A3014 RMK AO2 SLP218 T10501072

Sunrise: 7:09am; Sunset: 6:14pm; Moonrise: 3:12am; Moonset: 12:27pm; Day length: 11h 5m

February 27

8:53 AM 34.0 °F 30.0 °F 85% 29.96 in 5.0 miles SSW 6.9 mph – N/A Overcast

METAR KLPR 271353Z AUTO 20006KT 5SM BR OVC025 01/M01 A2993 RMK AO2 SLP144 T00111011

Sunrise: 7:07am; Sunset: 6:15pm; Moonrise: 4:00am; Moonset: 1:28pm; Day length: 11h 8m

February 28

8:45 AM 35.6 °F 35.6 °F 100% 29.70 in 10.0 miles NNW 15.0 mph 23.0 mph 0.01 in Overcast

SPECI KLPR 281345Z AUTO 34013G20KT 10SM OVC005 02/02 A2970 RMK AO2 PK WND 33026/1328 P0001

Sunrise: 7:06am; Sunset: 6:16pm; Moonrise: 4:40am; Moonset: 2:30pm; Day length: 11h 11m

Weather Data from This Great Site

Erie Effects – January, 2011 Wx Log

leave a comment »

January 1

8:30 AM 26.6 °F 23.0 °F 86% 29.77 in 5.0 miles South 12.7 mph – 0.00 in Overcast

SPECI KLPR 291330Z AUTO 19011KT 5SM UP BR FEW016 BKN029 OVC034 M03/M05 A2977 RMK AO2 UPB24SNE24 P0000 $

Sunrise: 7:55am; Sunset: 5:08pm; Moonrise: 5:28am; Moonset: 2:44pm; Day length: 9h 14m

January 2

8:53 AM 21.0 °F 10.9 °F 65% 30.18 in 10.0 miles West 16.1 mph – N/A Partly Cloudy

METAR KLPR 021353Z AUTO 26014KT 10SM FEW026 M06/M12 A3015 RMK AO2 SLP220 T10611117

Sunrise: 7:55am; Sunset: 5:09pm; Moonrise: 6:28am; Moonset: 3:40pm; Day length: 9h 14m

January 3

8:53 AM 21.9 °F 14.0 °F 72% 30.23 in 10.0 miles SSW 9.2 mph – N/A Clear

METAR KLPR 031353Z AUTO 21008KT 10SM CLR M06/M10 A3020 RMK AO2 SLP237 T10561100

Sunrise: 7:55am; Sunset: 5:10pm; Moonrise: 7:20am; Moonset: 4:41pm; Day length: 9h 15m

January 4

8:53 AM 32.0 °F 19.0 °F 59% 29.91 in 10.0 miles SW 10.4 mph – N/A Mostly Cloudy

METAR KLPR 041353Z AUTO 23009KT 10SM BKN070 00/M07 A2988 RMK AO2 SLP127 T00001072

Sunrise: 7:55am; Sunset: 5:11pm; Moonrise: 8:03am; Moonset: 5:45pm; New Moon: 4:04am; Day length: 9h 16m

January 5

8:53 AM 23.0 °F 16.0 °F 74% 30.04 in 9.0 miles West 5.8 mph – N/A Overcast

METAR KLPR 051353Z AUTO 26005KT 9SM OVC031 M05/M09 A3001 RMK AO2 SLP173 T10501089

Sunrise: 7:55am; Sunset: 5:12pm; Moonrise: 8:39am; Moonset: 6:49pm; Day length: 9h 17m

January 6

8:53 AM 25.0 °F 21.0 °F 85% 29.66 in 5.0 miles SSW 6.9 mph – 0.00 in Overcast

METAR KLPR 061353Z AUTO 20006KT 5SM BR OVC016 M04/M06 A2962 RMK AO2 SNE21 SLP042 P0000 T10391061

Sunrise: 7:55am; Sunset: 5:13pm; Moonrise: 9:09am; Moonset: 7:52pm; Day length: 9h 18m

January 7

8:42 AM 17.6 °F 12.2 °F 79% 29.43 in 10.0 miles WSW 9.2 mph – N/A Overcast

SPECI KLPR 071342Z AUTO 24008KT 10SM SCT020 OVC055 M08/M11 A2943 RMK AO2

Sunrise: 7:55am; Sunset: 5:14pm; Moonrise: 9:36am; Moonset: 8:52pm; Day length: 9h 19m

January 8

8:14 AM 14.0 °F 10.4 °F 86% 29.49 in 9.0 miles West 5.8 mph – 0.00 in Overcast

SPECI KLPR 081314Z AUTO 27005KT 9SM BKN018 BKN029 OVC048 M10/M12 A2949 RMK AO2 SNE1255 P0000

Sunrise: 7:55am; Sunset: 5:15pm; Moonrise: 10:00am; Moonset: 9:52pm; Day length: 9h 20m

January 9

8:53 PM 15.1 °F 10.0 °F 80% 30.43 in 10.0 miles WSW 5.8 mph – N/A Clear

METAR KLPR 100153Z AUTO 24005KT 10SM CLR M09/M12 A3038 RMK AO2 SLP302 T10941122 TSNO

Sunrise: 7:55am; Sunset: 5:15pm; Moonrise: 10:00am; Moonset: 9:52pm; Day length: 9h 20m

January 10

8:53 PM 24.1 °F 17.1 °F 75% 30.38 in 10.0 miles NE 5.8 mph – N/A Scattered Clouds

METAR KLPR 110153Z AUTO 05005KT 10SM SCT024 M04/M08 A3033 RMK AO2 SLP286 T10441083

Sunrise: 7:54am; Sunset: 5:17pm; Moonrise: 10:45am; Moonset: 11:49pm; Day length: 9h 22m

January 11

8:53 AM 23.0 °F 15.1 °F 72% 30.15 in 10.0 miles East 6.9 mph – N/A Overcast

METAR KLPR 111353Z AUTO 10006KT 10SM OVC075 M05/M09 A3011 RMK AO2 SLP208 T10501094

Sunrise: 7:54am; Sunset: 5:18pm; Moonrise: 11:08am; Moonset: none; Day length: 9h 24m

January 12

8:53 AM 24.1 °F 19.0 °F 81% 30.08 in 10.0 miles NNW 15.0 mph 25.3 mph 0.00 in Overcast

METAR KLPR 121353Z AUTO 34013G22KT 10SM OVC045 M04/M07 A3004 RMK AO2 PK WND 35026/1325 SNB27E37 SLP184 P0000 T10441072

Sunrise: 7:54am; Sunset: 5:19pm; Moonrise: 11:34am; Moonset: 12:49am; First Qtr: 6:33am; Day length: 9h 25m

January 13

8:53 AM 16.0 °F 12.0 °F 84% 30.48 in 8.0 miles WNW 5.8 mph – N/A Overcast

METAR KLPR 131353Z AUTO 29005KT 8SM OVC031 M09/M11 A3043 RMK AO2 SLP319 T10891111

Sunrise: 7:54am; Sunset: 5:20pm; Moonrise: 12:04pm; Moonset: 1:50am; Day length: 9h 26m

January 14

8:53 AM 19.0 °F 15.1 °F 85% 30.38 in 3.0 miles SSW 5.8 mph – 0.00 in Snow Light Snow

METAR KLPR 141353Z AUTO 21005KT 3SM -SN BR SCT031 BKN039 OVC055 M07/M09 A3034 RMK AO2 SNE1255B31 SLP286 P0000 T10721094

Sunrise: 7:53am; Sunset: 5:21pm; Moonrise: 12:39pm; Moonset: 2:53am; Day length: 9h 28m

January 15

8:19 AM 28.4 °F 24.8 °F 86% 29.87 in 5.0 miles SSW 16.1 mph 24.2 mph 0.00 in Haze

SPECI KLPR 151319Z AUTO 20014G21KT 5SM HZ FEW021 BKN044 OVC075 M02/M04 A2987 RMK AO2 SNE18 P0000

Sunrise: 7:53am; Sunset: 5:22pm; Moonrise: 1:21pm; Moonset: 3:55am; Day length: 9h 29m

January 16

8:53 AM 16.0 °F 6.1 °F 65% 30.29 in 10.0 miles North 5.8 mph – N/A Overcast

METAR KLPR 161353Z AUTO 01005KT 10SM OVC031 M09/M14 A3025 RMK AO2 SLP255 T10891144

Sunrise: 7:52am; Sunset: 5:23pm; Moonrise: 2:12pm; Moonset: 4:57am; Day length: 9h 31m

January 17

8:53 AM 12.0 °F 6.1 °F 77% 30.19 in 10.0 miles SSE 6.9 mph – N/A Partly Cloudy

METAR KLPR 171353Z AUTO 16006KT 10SM FEW085 M11/M14 A3015 RMK AO2 SLP224 T11111144

Sunrise: 7:52am; Sunset: 5:25pm; Moonrise: 3:13pm; Moonset: 5:54am; Day length: 9h 33m

January 18

7:53 AM 37.0 °F 33.1 °F 86% 29.77 in 7.0 miles South 12.7 mph – N/A Overcast

METAR KLPR 181253Z AUTO 18011KT 7SM OVC028 03/01 A2975 RMK AO2 SLP081 T00280006

Sunrise: 7:51am; Sunset: 5:26pm; Moonrise: 4:22pm; Moonset: 6:45am; Day length: 9h 34m

January 19

8:53 AM 27.0 °F 23.0 °F 85% 29.92 in 10.0 miles NNE 11.5 mph – N/A Overcast

METAR KLPR 191353Z AUTO 02010KT 10SM OVC013 M03/M05 A2990 RMK AO2 SLP132 T10281050

Sunrise: 7:51am; Sunset: 5:27pm; Moonrise: 5:36pm; Moonset: 7:29am; Full Moon: 4:22pm; Day length: 9h 36m

January 20

8:53 AM 21.0 °F 17.1 °F 85% 30.14 in 8.0 miles Calm Calm – N/A Overcast

METAR KLPR 201353Z AUTO 00000KT 8SM OVC021 M06/M08 A3011 RMK AO2 SLP207 T10611083

Sunrise: 7:50am; Sunset: 5:28pm; Moonrise: 6:52pm; Moonset: 8:07am; Day length: 9h 38m

January 21

8:36 AM 12.2 °F 6.8 °F 79% 29.90 in 10.0 miles West 13.8 mph 21.9 mph 0.00 in Overcast

SPECI KLPR 211336Z AUTO 28012G19KT 10SM BKN029 OVC038 M11/M14 A2990 RMK AO2 SNE16 P0000

Sunrise: 7:50am; Sunset: 5:29pm; Moonrise: 8:08pm; Moonset: 8:41am; Day length: 9h 40m

January 22

8:53 AM 1.0 °F -2.9 °F 83% 30.01 in 6.0 miles SSW 6.9 mph – N/A Partly Cloudy

METAR KLPR 221353Z AUTO 20006KT 6SM BR FEW110 M17/M19 A2995 RMK AO2 SLP162 T11721194

Sunrise: 7:49am; Sunset: 5:30pm; Moonrise: 9:23pm; Moonset: 9:11am; Day length: 9h 41m

January 23

8:17 AM 10.4 °F 5.0 °F 79% 30.18 in 10.0 miles North 10.4 mph – N/A Scattered Clouds

SPECI KLPR 231317Z AUTO 35009KT 10SM SCT016 M12/M15  A3018 RMK AO2

Sunrise: 7:48am; Sunset: 5:32pm; Moonrise: 10:37pm; Moonset: 9:41am; Day length: 9h 43m

January 24

8:09 AM 10.4 °F 1.4 °F 67% 30.22 in 5.0 miles SSE 5.8 mph – 0.00 in Snow Light Snow

SPECI KLPR 241309Z AUTO 16005KT 5SM -SN BKN028 OVC042 M12/M17 A3022 RMK AO2 SNB1259 P0000

Sunrise: 7:48am; Sunset: 5:33pm; Moonrise: 11:51pm; Moonset: 10:10am; Day length: 9h 45m

January 25

8:25 AM 28.4 °F 24.8 °F 86% 30.10 in 7.0 miles West 9.2 mph 20.7 mph N/A Overcast

SPECI KLPR 251325Z AUTO 28008G18KT 7SM OVC013 M02/M04 A3010 RMK AO2

Sunrise: 7:47am; Sunset: 5:34pm; Moonrise: none; Moonset: 10:41am; Day length: 9h 47m

January 26

8:09 AM 26.6 °F 24.8 °F 93% 29.93 in 1.5 miles ENE 9.2 mph – N/A Overcast

SPECI KLPR 261309Z AUTO 06008KT 1 1/2SM BR OVC004 M03/M04 A2993 RMK AO2

Sunrise: 7:46am; Sunset: 5:35pm; Moonrise: 1:03am; Moonset: 11:15am; Last Qtr: 7:58am; Day length: 9h 49m

January 27

8:25 AM 26.6 °F 21.2 °F 80% 29.94 in 6.0 miles WSW 11.5 mph – N/A Haze

SPECI KLPR 271325Z AUTO 25010KT 6SM HZ BKN014 OVC037 M03/M06 A2994 RMK AO2

Sunrise: 7:45am; Sunset: 5:37pm; Moonrise: 2:14am; Moonset: 11:55am; Day length: 9h 51m

January 28

8:20 AM 24.8 °F 21.2 °F 86% 29.79 in 4.0 miles NW 5.8 mph – N/A Overcast

SPECI KLPR 281320Z AUTO 32005KT 4SM BR BKN008 OVC012 M04/M06 A2979 RMK AO2 CIG 007V011

Sunrise: 7:45am; Sunset: 5:38pm; Moonrise: 3:21am; Moonset: 12:41pm; Day length: 9h 53m

January 29

8:30 AM 26.6 °F 23.0 °F 86% 29.77 in 5.0 miles South 12.7 mph – 0.00 in Overcast

SPECI KLPR 291330Z AUTO 19011KT 5SM UP BR FEW016 BKN029 OVC034 M03/M05 A2977 RMK    AO2 UPB24SNE24 P0000 $

Sunrise: 7:44am; Sunset: 5:39pm; Moonrise: 4:22am; Moonset: 1:34pm; Day length: 9h 56m

January 30

8:12 AM 24.8 °F 21.2 °F 86% 30.16 in 6.0 miles NE 8.1 mph – N/A Overcast

SPECI KLPR 301312Z AUTO 04007KT 6SM BR SCT008 OVC015 M04/M06 A3016 RMK AO2 $

Sunrise: 7:43am; Sunset: 5:40pm; Moonrise: 5:16am; Moonset: 2:32pm; Day length: 9h 58m

January 31

8:53 AM 9.0 °F 5.0 °F 84% 30.48 in 10.0 miles East 5.8 mph – N/A Partly Cloudy

METAR KLPR 311353Z AUTO 10005KT 10SM FEW080 M13/M15 A3043 RMK AO2 SLP321 T11281150

Sunrise: 7:42am; Sunset: 5:42pm; Moonrise: 6:01am; Moonset: 3:34pm; Day length: 10h 0m

Weather Data from this Great Site:

Written by M.T. Bass

January 31, 2011 at 12:21 pm